createdAt,value
2022-12-05T00:00:24.416Z,0.00
2022-12-05T00:01:24.411Z,0.00
2022-12-05T00:02:24.543Z,0.00
2022-12-05T00:03:24.384Z,0.00
2022-12-05T00:04:24.555Z,0.00
2022-12-05T00:05:24.398Z,0.00
2022-12-05T00:06:24.411Z,0.00
2022-12-05T00:07:24.352Z,0.00
2022-12-05T00:08:24.331Z,0.00
2022-12-05T00:09:24.333Z,0.00
2022-12-05T00:10:24.340Z,0.00
2022-12-05T00:11:24.291Z,0.00
2022-12-05T00:12:24.330Z,0.00
2022-12-05T00:13:24.276Z,0.00
2022-12-05T00:14:24.264Z,0.00
2022-12-05T00:15:24.272Z,0.00
2022-12-05T00:16:24.316Z,0.00
2022-12-05T00:17:24.229Z,0.00
2022-12-05T00:18:24.228Z,0.00
2022-12-05T00:19:24.210Z,0.00
2022-12-05T00:20:24.196Z,0.00
2022-12-05T00:21:24.201Z,0.00
2022-12-05T00:22:24.190Z,0.00
2022-12-05T00:23:24.160Z,0.00
2022-12-05T00:24:24.154Z,0.00
2022-12-05T00:25:24.142Z,0.00
2022-12-05T00:26:24.159Z,0.00
2022-12-05T00:27:24.157Z,0.00
2022-12-05T00:28:24.125Z,0.00
2022-12-05T00:29:24.094Z,0.00
2022-12-05T00:30:24.108Z,0.00
2022-12-05T00:31:24.171Z,0.00
2022-12-05T00:32:24.116Z,0.00
2022-12-05T00:33:24.049Z,0.00
2022-12-05T00:34:24.041Z,0.00
2022-12-05T00:35:24.029Z,0.00
2022-12-05T00:36:24.042Z,0.00
2022-12-05T00:37:24.003Z,0.00
2022-12-05T00:38:23.994Z,0.00
2022-12-05T00:39:23.986Z,0.00
2022-12-05T00:40:23.968Z,0.00
2022-12-05T00:41:23.978Z,0.00
2022-12-05T00:42:23.952Z,0.00
2022-12-05T00:43:23.960Z,0.00
2022-12-05T00:44:23.951Z,0.00
2022-12-05T00:45:23.923Z,0.00
2022-12-05T00:46:23.962Z,0.00
2022-12-05T00:47:23.922Z,0.00
2022-12-05T00:48:23.915Z,0.00
2022-12-05T00:49:23.894Z,0.00
2022-12-05T00:50:23.859Z,0.00
2022-12-05T00:51:23.847Z,0.00
2022-12-05T00:52:23.864Z,0.00
2022-12-05T00:53:23.835Z,0.00
2022-12-05T00:54:23.832Z,0.00
2022-12-05T00:55:23.843Z,0.00
2022-12-05T00:56:23.804Z,0.00
2022-12-05T00:57:23.787Z,0.00
2022-12-05T00:58:23.773Z,0.00
2022-12-05T00:59:23.783Z,0.00
2022-12-05T01:00:23.765Z,0.00
2022-12-05T01:01:23.888Z,0.00
2022-12-05T01:02:23.844Z,0.00
2022-12-05T01:03:23.756Z,0.00
2022-12-05T01:04:23.733Z,0.00
2022-12-05T01:05:23.694Z,0.00
2022-12-05T01:06:23.692Z,0.00
2022-12-05T01:07:23.674Z,0.00
2022-12-05T01:08:23.667Z,0.00
2022-12-05T01:09:23.692Z,0.00
2022-12-05T01:10:23.682Z,0.00
2022-12-05T01:11:23.664Z,0.00
2022-12-05T01:12:23.622Z,0.00
2022-12-05T01:13:23.616Z,0.00
2022-12-05T01:14:23.633Z,0.00
2022-12-05T01:15:23.579Z,0.00
2022-12-05T01:16:23.676Z,0.00
2022-12-05T01:17:23.579Z,0.00
2022-12-05T01:18:23.551Z,0.00
2022-12-05T01:19:23.543Z,0.00
2022-12-05T01:20:23.622Z,0.00
2022-12-05T01:21:23.525Z,0.00
2022-12-05T01:22:23.512Z,0.00
2022-12-05T01:23:23.488Z,0.00
2022-12-05T01:24:23.489Z,0.00
2022-12-05T01:25:23.514Z,0.00
2022-12-05T01:26:23.460Z,0.00
2022-12-05T01:27:23.471Z,0.00
2022-12-05T01:28:23.466Z,0.00
2022-12-05T01:29:23.422Z,0.00
2022-12-05T01:30:23.428Z,0.00
2022-12-05T01:31:23.480Z,0.00
2022-12-05T01:32:23.531Z,0.00
2022-12-05T01:33:23.378Z,0.00
2022-12-05T01:34:23.388Z,0.00
2022-12-05T01:35:23.362Z,0.00
2022-12-05T01:36:23.356Z,0.00
2022-12-05T01:37:23.372Z,0.00
2022-12-05T01:38:23.322Z,0.00
2022-12-05T01:39:23.312Z,0.00
2022-12-05T01:40:23.306Z,0.00
2022-12-05T01:41:23.300Z,0.00
2022-12-05T01:42:26.315Z,0.00
2022-12-05T01:43:23.308Z,0.00
2022-12-05T01:44:23.265Z,0.00
2022-12-05T01:45:23.246Z,0.00
2022-12-05T01:46:23.284Z,0.00
2022-12-05T01:47:23.241Z,0.00
2022-12-05T01:48:23.313Z,0.00
2022-12-05T01:49:23.198Z,0.00
2022-12-05T01:50:23.193Z,0.00
2022-12-05T01:51:23.182Z,0.00
2022-12-05T01:52:23.164Z,0.00
2022-12-05T01:53:23.187Z,0.00
2022-12-05T01:54:23.186Z,0.00
2022-12-05T01:55:23.134Z,0.00
2022-12-05T01:56:23.126Z,0.00
2022-12-05T01:57:23.120Z,0.00
2022-12-05T01:58:23.380Z,0.00
2022-12-05T01:59:23.099Z,0.00
2022-12-05T02:00:23.076Z,0.00
2022-12-05T02:01:23.275Z,0.00
2022-12-05T02:02:23.119Z,0.00
2022-12-05T02:03:23.075Z,0.00
2022-12-05T02:04:23.090Z,0.00
2022-12-05T02:05:23.041Z,0.00
2022-12-05T02:06:23.017Z,0.00
2022-12-05T02:07:22.999Z,0.00
2022-12-05T02:08:23.208Z,0.00
2022-12-05T02:09:22.975Z,0.00
2022-12-05T02:10:23.005Z,0.00
2022-12-05T02:11:22.953Z,0.00
2022-12-05T02:12:22.991Z,0.00
2022-12-05T02:13:22.929Z,0.00
2022-12-05T02:14:22.949Z,0.00
2022-12-05T02:15:22.906Z,0.00
2022-12-05T02:16:22.993Z,0.00
2022-12-05T02:17:22.885Z,0.00
2022-12-05T02:18:22.914Z,0.00
2022-12-05T02:19:22.980Z,0.00
2022-12-05T02:20:22.888Z,0.00
2022-12-05T02:21:22.852Z,0.00
2022-12-05T02:22:22.872Z,0.00
2022-12-05T02:23:22.927Z,0.00
2022-12-05T02:24:22.818Z,0.00
2022-12-05T02:25:22.801Z,0.00
2022-12-05T02:26:22.786Z,0.00
2022-12-05T02:27:22.808Z,0.00
2022-12-05T02:28:22.781Z,0.00
2022-12-05T02:29:22.753Z,0.00
2022-12-05T02:30:22.760Z,0.00
2022-12-05T02:31:23.825Z,0.00
2022-12-05T02:32:22.843Z,0.00
2022-12-05T02:33:22.805Z,0.00
2022-12-05T02:34:22.702Z,0.00
2022-12-05T02:35:22.711Z,0.00
2022-12-05T02:36:22.728Z,0.00
2022-12-05T02:37:22.681Z,0.00
2022-12-05T02:38:22.660Z,0.00
2022-12-05T02:39:22.681Z,0.00
2022-12-05T02:40:22.657Z,0.00
2022-12-05T02:41:22.618Z,0.00
2022-12-05T02:42:22.606Z,0.00
2022-12-05T02:43:22.618Z,0.00
2022-12-05T02:44:22.592Z,0.00
2022-12-05T02:45:22.597Z,0.00
2022-12-05T02:46:22.661Z,0.00
2022-12-05T02:47:22.579Z,0.00
2022-12-05T02:48:22.548Z,0.00
2022-12-05T02:49:22.558Z,0.00
2022-12-05T02:50:22.526Z,0.00
2022-12-05T02:51:22.509Z,0.00
2022-12-05T02:52:22.555Z,0.00
2022-12-05T02:53:22.512Z,0.00
2022-12-05T02:54:22.479Z,0.00
2022-12-05T02:55:22.516Z,0.00
2022-12-05T02:56:22.467Z,0.00
2022-12-05T02:57:22.444Z,0.00
2022-12-05T02:58:22.426Z,0.00
2022-12-05T02:59:23.719Z,0.00
2022-12-05T03:00:22.416Z,0.00
2022-12-05T03:01:22.509Z,0.00
2022-12-05T03:02:22.381Z,0.00
2022-12-05T03:03:22.760Z,0.00
2022-12-05T03:04:22.442Z,0.00
2022-12-05T03:05:22.393Z,0.00
2022-12-05T03:06:22.367Z,0.00
2022-12-05T03:07:22.371Z,0.00
2022-12-05T03:08:22.339Z,0.00
2022-12-05T03:09:22.346Z,0.00
2022-12-05T03:10:22.291Z,0.00
2022-12-05T03:11:22.327Z,0.00
2022-12-05T03:12:22.274Z,0.00
2022-12-05T03:13:22.260Z,0.00
2022-12-05T03:14:22.279Z,0.00
2022-12-05T03:15:22.243Z,0.00
2022-12-05T03:16:22.265Z,0.00
2022-12-05T03:17:22.243Z,0.00
2022-12-05T03:18:22.205Z,0.00
2022-12-05T03:19:22.244Z,0.00
2022-12-05T03:20:22.235Z,0.00
2022-12-05T03:21:22.179Z,0.00
2022-12-05T03:22:22.186Z,0.00
2022-12-05T03:23:22.147Z,0.00
2022-12-05T03:24:22.165Z,0.00
2022-12-05T03:25:22.179Z,0.00
2022-12-05T03:26:22.128Z,0.00
2022-12-05T03:27:22.128Z,0.00
2022-12-05T03:28:22.100Z,0.00
2022-12-05T03:29:22.152Z,0.00
2022-12-05T03:30:22.125Z,0.00
2022-12-05T03:31:22.210Z,0.00
2022-12-05T03:32:22.050Z,0.00
2022-12-05T03:33:22.034Z,0.00
2022-12-05T03:34:22.119Z,0.00
2022-12-05T03:35:22.018Z,0.00
2022-12-05T03:36:22.020Z,0.00
2022-12-05T03:37:21.994Z,0.00
2022-12-05T03:38:22.025Z,0.00
2022-12-05T03:39:22.064Z,0.00
2022-12-05T03:40:21.996Z,0.00
2022-12-05T03:41:21.988Z,0.00
2022-12-05T03:42:21.952Z,0.00
2022-12-05T03:43:21.922Z,0.00
2022-12-05T03:44:21.910Z,0.00
2022-12-05T03:45:21.912Z,0.00
2022-12-05T03:46:22.013Z,0.00
2022-12-05T03:47:21.899Z,0.00
2022-12-05T03:48:21.886Z,0.00
2022-12-05T03:49:21.861Z,0.00
2022-12-05T03:50:21.874Z,0.00
2022-12-05T03:51:21.836Z,0.00
2022-12-05T03:52:21.854Z,0.00
2022-12-05T03:53:21.825Z,0.00
2022-12-05T03:54:21.797Z,0.00
2022-12-05T03:55:21.811Z,0.00
2022-12-05T03:56:21.798Z,0.00
2022-12-05T03:57:21.801Z,0.00
2022-12-05T03:58:21.761Z,0.00
2022-12-05T03:59:21.758Z,0.00
2022-12-05T04:00:21.768Z,0.00
2022-12-05T04:01:21.881Z,0.00
2022-12-05T04:02:21.713Z,0.00
2022-12-05T04:03:21.736Z,0.00
2022-12-05T04:04:21.706Z,0.00
2022-12-05T04:05:21.672Z,0.00
2022-12-05T04:06:21.686Z,0.00
2022-12-05T04:07:21.670Z,0.00
2022-12-05T04:08:21.720Z,0.00
2022-12-05T04:09:21.637Z,0.00
2022-12-05T04:10:21.626Z,0.00
2022-12-05T04:11:21.631Z,0.00
2022-12-05T04:12:21.643Z,0.00
2022-12-05T04:13:21.591Z,0.00
2022-12-05T04:14:21.574Z,0.00
2022-12-05T04:15:21.603Z,0.00
2022-12-05T04:16:21.628Z,0.00
2022-12-05T04:17:21.571Z,0.00
2022-12-05T04:18:21.527Z,0.00
2022-12-05T04:19:21.522Z,0.00
2022-12-05T04:20:21.519Z,0.00
2022-12-05T04:21:21.507Z,0.00
2022-12-05T04:22:21.512Z,0.00
2022-12-05T04:23:21.512Z,0.00
2022-12-05T04:24:21.489Z,0.00
2022-12-05T04:25:21.537Z,0.00
2022-12-05T04:26:21.445Z,0.00
2022-12-05T04:27:21.449Z,0.00
2022-12-05T04:28:22.122Z,0.00
2022-12-05T04:29:21.408Z,0.00
2022-12-05T04:30:21.408Z,0.00
2022-12-05T04:31:21.466Z,0.00
2022-12-05T04:32:21.446Z,0.00
2022-12-05T04:33:21.428Z,0.00
2022-12-05T04:34:21.383Z,0.00
2022-12-05T04:35:21.342Z,0.00
2022-12-05T04:36:21.334Z,0.00
2022-12-05T04:37:21.352Z,0.00
2022-12-05T04:38:21.329Z,0.00
2022-12-05T04:39:21.323Z,0.00
2022-12-05T04:40:21.311Z,0.00
2022-12-05T04:41:21.275Z,0.00
2022-12-05T04:42:21.273Z,0.00
2022-12-05T04:43:21.272Z,0.00
2022-12-05T04:44:21.275Z,0.00
2022-12-05T04:45:21.260Z,0.00
2022-12-05T04:46:21.273Z,0.00
2022-12-05T04:47:21.228Z,0.00
2022-12-05T04:48:21.202Z,0.00
2022-12-05T04:49:21.196Z,0.00
2022-12-05T04:50:21.195Z,0.00
2022-12-05T04:51:21.161Z,0.00
2022-12-05T04:52:21.170Z,0.00
2022-12-05T04:53:21.149Z,0.00
2022-12-05T04:54:21.128Z,0.00
2022-12-05T04:55:21.123Z,0.00
2022-12-05T04:56:21.157Z,0.00
2022-12-05T04:57:21.167Z,0.00
2022-12-05T04:58:21.109Z,0.00
2022-12-05T04:59:21.075Z,0.00
2022-12-05T05:00:21.084Z,0.00
2022-12-05T05:01:21.186Z,0.00
2022-12-05T05:02:21.128Z,0.00
2022-12-05T05:03:21.088Z,0.00
2022-12-05T05:04:21.016Z,0.00
2022-12-05T05:05:21.042Z,0.00
2022-12-05T05:06:20.993Z,0.00
2022-12-05T05:07:20.996Z,0.00
2022-12-05T05:08:21.137Z,0.00
2022-12-05T05:09:20.961Z,0.00
2022-12-05T05:10:20.949Z,0.00
2022-12-05T05:11:20.960Z,0.00
2022-12-05T05:12:20.935Z,0.00
2022-12-05T05:13:20.924Z,0.00
2022-12-05T05:14:20.905Z,0.00
2022-12-05T05:15:20.946Z,0.00
2022-12-05T05:16:21.009Z,0.00
2022-12-05T05:17:20.875Z,0.00
2022-12-05T05:18:20.866Z,0.00
2022-12-05T05:19:20.874Z,0.00
2022-12-05T05:20:20.888Z,0.00
2022-12-05T05:21:20.857Z,0.00
2022-12-05T05:22:20.823Z,0.00
2022-12-05T05:23:20.806Z,0.00
2022-12-05T05:24:20.818Z,0.00
2022-12-05T05:25:20.787Z,0.00
2022-12-05T05:26:20.772Z,0.00
2022-12-05T05:27:20.765Z,0.00
2022-12-05T05:28:20.776Z,0.00
2022-12-05T05:29:20.754Z,0.00
2022-12-05T05:30:20.742Z,0.00
2022-12-05T05:31:20.859Z,0.00
2022-12-05T05:32:20.728Z,0.00
2022-12-05T05:33:20.766Z,0.00
2022-12-05T05:34:20.680Z,0.00
2022-12-05T05:35:20.704Z,0.00
2022-12-05T05:36:20.656Z,0.00
2022-12-05T05:37:20.652Z,0.00
2022-12-05T05:38:20.635Z,0.00
2022-12-05T05:39:20.651Z,0.00
2022-12-05T05:40:20.612Z,0.00
2022-12-05T05:41:20.609Z,0.00
2022-12-05T05:42:20.590Z,0.00
2022-12-05T05:43:20.578Z,0.00
2022-12-05T05:44:20.587Z,0.00
2022-12-05T05:45:20.565Z,0.00
2022-12-05T05:46:20.595Z,0.00
2022-12-05T05:47:20.538Z,0.00
2022-12-05T05:48:20.574Z,0.00
2022-12-05T05:49:20.516Z,0.00
2022-12-05T05:50:21.998Z,0.00
2022-12-05T05:51:20.496Z,0.00
2022-12-05T05:52:20.486Z,0.00
2022-12-05T05:53:20.481Z,0.00
2022-12-05T05:54:20.487Z,0.00
2022-12-05T05:55:20.452Z,0.00
2022-12-05T05:56:22.067Z,0.00
2022-12-05T05:57:20.792Z,0.00
2022-12-05T05:58:20.421Z,0.00
2022-12-05T05:59:20.424Z,0.00
2022-12-05T06:00:20.424Z,0.00
2022-12-05T06:01:20.390Z,0.00
2022-12-05T06:02:20.486Z,0.00
2022-12-05T06:03:20.503Z,0.00
2022-12-05T06:04:20.496Z,0.00
2022-12-05T06:05:20.358Z,0.00
2022-12-05T06:06:20.320Z,0.00
2022-12-05T06:07:20.320Z,0.00
2022-12-05T06:08:20.373Z,0.00
2022-12-05T06:09:20.295Z,0.00
2022-12-05T06:10:20.305Z,0.00
2022-12-05T06:11:25.307Z,0.00
2022-12-05T06:12:20.267Z,0.00
2022-12-05T06:13:20.270Z,0.00
2022-12-05T06:14:20.240Z,0.00
2022-12-05T06:15:20.228Z,0.00
2022-12-05T06:16:20.275Z,0.00
2022-12-05T06:17:20.204Z,0.00
2022-12-05T06:18:20.216Z,0.00
2022-12-05T06:19:20.193Z,0.00
2022-12-05T06:20:20.195Z,0.00
2022-12-05T06:21:20.170Z,0.00
2022-12-05T06:22:20.144Z,0.00
2022-12-05T06:23:20.141Z,0.00
2022-12-05T06:24:20.192Z,0.00
2022-12-05T06:25:20.135Z,0.00
2022-12-05T06:26:20.103Z,0.00
2022-12-05T06:27:20.101Z,0.00
2022-12-05T06:28:20.072Z,0.00
2022-12-05T06:29:25.089Z,0.00
2022-12-05T06:30:21.086Z,0.00
2022-12-05T06:31:20.124Z,0.00
2022-12-05T06:32:20.074Z,0.00
2022-12-05T06:33:20.037Z,0.00
2022-12-05T06:34:20.037Z,0.00
2022-12-05T06:35:20.003Z,0.00
2022-12-05T06:36:20.011Z,0.00
2022-12-05T06:37:19.987Z,0.00
2022-12-05T06:38:19.981Z,0.00
2022-12-05T06:39:19.982Z,4.00
2022-12-05T06:40:20.076Z,0.00
2022-12-05T06:41:19.971Z,0.00
2022-12-05T06:42:19.918Z,4.00
2022-12-05T06:43:19.919Z,0.00
2022-12-05T06:44:19.922Z,4.00
2022-12-05T06:45:19.892Z,4.00
2022-12-05T06:46:19.979Z,4.00
2022-12-05T06:47:19.867Z,4.00
2022-12-05T06:48:19.851Z,8.00
2022-12-05T06:49:19.874Z,8.00
2022-12-05T06:50:19.837Z,8.00
2022-12-05T06:51:19.832Z,12.00
2022-12-05T06:52:19.829Z,12.00
2022-12-05T06:53:19.835Z,12.00
2022-12-05T06:54:19.786Z,12.00
2022-12-05T06:55:19.783Z,16.00
2022-12-05T06:56:19.798Z,20.00
2022-12-05T06:57:19.753Z,24.00
2022-12-05T06:58:19.744Z,24.00
2022-12-05T06:59:19.750Z,28.00
2022-12-05T07:00:19.720Z,32.00
2022-12-05T07:01:19.801Z,36.00
2022-12-05T07:02:19.814Z,40.00
2022-12-05T07:03:19.690Z,44.00
2022-12-05T07:04:19.681Z,48.00
2022-12-05T07:05:19.665Z,56.00
2022-12-05T07:06:19.678Z,60.00
2022-12-05T07:07:19.657Z,72.00
2022-12-05T07:08:19.741Z,80.00
2022-12-05T07:09:19.623Z,88.00
2022-12-05T07:10:19.607Z,100.00
2022-12-05T07:11:19.627Z,112.00
2022-12-05T07:12:19.604Z,124.00
2022-12-05T07:13:19.603Z,140.00
2022-12-05T07:14:45.801Z,156.00
2022-12-05T07:15:20.552Z,176.00
2022-12-05T07:16:19.596Z,200.00
2022-12-05T07:17:19.555Z,224.00
2022-12-05T07:18:19.525Z,248.00
2022-12-05T07:19:19.510Z,280.00
2022-12-05T07:20:19.493Z,312.00
2022-12-05T07:21:19.493Z,344.00
2022-12-05T07:22:19.494Z,372.00
2022-12-05T07:23:19.472Z,404.00
2022-12-05T07:24:19.482Z,436.00
2022-12-05T07:25:19.474Z,464.00
2022-12-05T07:26:19.430Z,492.00
2022-12-05T07:27:25.024Z,520.00
2022-12-05T07:28:20.407Z,540.00
2022-12-05T07:29:19.438Z,556.00
2022-12-05T07:30:19.406Z,580.00
2022-12-05T07:31:19.410Z,608.00
2022-12-05T07:32:19.482Z,624.00
2022-12-05T07:33:19.372Z,656.00
2022-12-05T07:34:19.373Z,696.00
2022-12-05T07:35:19.347Z,740.00
2022-12-05T07:36:19.343Z,772.00
2022-12-05T07:37:19.311Z,804.00
2022-12-05T07:38:19.296Z,832.00
2022-12-05T07:39:19.314Z,856.00
2022-12-05T07:40:19.303Z,880.00
2022-12-05T07:41:19.283Z,900.00
2022-12-05T07:42:19.274Z,916.00
2022-12-05T07:43:19.245Z,932.00
2022-12-05T07:44:19.316Z,948.00
2022-12-05T07:45:19.218Z,964.00
2022-12-05T07:46:19.276Z,980.00
2022-12-05T07:47:19.320Z,992.00
2022-12-05T07:48:19.329Z,996.00
2022-12-05T07:49:19.176Z,992.00
2022-12-05T07:50:19.193Z,992.00
2022-12-05T07:51:19.159Z,992.00
2022-12-05T07:52:19.161Z,996.00
2022-12-05T07:53:19.129Z,1008.00
2022-12-05T07:54:19.114Z,1020.00
2022-12-05T07:55:19.128Z,1040.00
2022-12-05T07:56:19.120Z,1052.00
2022-12-05T07:57:19.084Z,1068.00
2022-12-05T07:58:19.075Z,1076.00
2022-12-05T07:59:19.093Z,1100.00
2022-12-05T08:00:19.084Z,1124.00
2022-12-05T08:01:19.156Z,1156.00
2022-12-05T08:02:19.086Z,1168.00
2022-12-05T08:03:19.017Z,1168.00
2022-12-05T08:04:19.028Z,1160.00
2022-12-05T08:05:18.995Z,1160.00
2022-12-05T08:06:19.003Z,1172.00
2022-12-05T08:07:18.967Z,1176.00
2022-12-05T08:08:19.019Z,1188.00
2022-12-05T08:09:18.946Z,1196.00
2022-12-05T08:10:18.961Z,1212.00
2022-12-05T08:11:18.931Z,1236.00
2022-12-05T08:12:18.943Z,1260.00
2022-12-05T08:13:18.906Z,1296.00
2022-12-05T08:14:18.897Z,1340.00
2022-12-05T08:15:18.901Z,1392.00
2022-12-05T08:16:18.942Z,1444.00
2022-12-05T08:17:18.865Z,1488.00
2022-12-05T08:18:21.972Z,1516.00
2022-12-05T08:19:19.879Z,1536.00
2022-12-05T08:20:18.832Z,1552.00
2022-12-05T08:21:18.822Z,1564.00
2022-12-05T08:22:18.839Z,1564.00
2022-12-05T08:23:18.790Z,1572.00
2022-12-05T08:24:18.816Z,1576.00
2022-12-05T08:25:18.768Z,1592.00
2022-12-05T08:26:18.802Z,1612.00
2022-12-05T08:27:18.780Z,1632.00
2022-12-05T08:28:18.760Z,1644.00
2022-12-05T08:29:18.728Z,1656.00
2022-12-05T08:30:18.726Z,1660.00
2022-12-05T08:31:18.797Z,1664.00
2022-12-05T08:32:18.722Z,1660.00
2022-12-05T08:33:18.711Z,1656.00
2022-12-05T08:34:18.679Z,1656.00
2022-12-05T08:35:18.653Z,1660.00
2022-12-05T08:36:18.663Z,1668.00
2022-12-05T08:37:18.640Z,1680.00
2022-12-05T08:38:18.648Z,1688.00
2022-12-05T08:39:18.610Z,1684.00
2022-12-05T08:40:18.604Z,1672.00
2022-12-05T08:41:18.588Z,1664.00
2022-12-05T08:42:18.612Z,1684.00
2022-12-05T08:43:18.576Z,1736.00
2022-12-05T08:44:18.902Z,1820.00
2022-12-05T08:45:18.543Z,1912.00
2022-12-05T08:46:18.602Z,2016.00
2022-12-05T08:47:18.525Z,2112.00
2022-12-05T08:48:18.551Z,2200.00
2022-12-05T08:49:18.524Z,2272.00
2022-12-05T08:50:18.514Z,2344.00
2022-12-05T08:51:18.478Z,2420.00
2022-12-05T08:52:18.484Z,2512.00
2022-12-05T08:53:18.457Z,2604.00
2022-12-05T08:54:18.512Z,2684.00
2022-12-05T08:55:18.444Z,2728.00
2022-12-05T08:56:23.441Z,2696.00
2022-12-05T08:57:19.443Z,2628.00
2022-12-05T08:58:18.489Z,2596.00
2022-12-05T08:59:18.393Z,2588.00
2022-12-05T09:00:18.417Z,2580.00
2022-12-05T09:01:18.438Z,2544.00
2022-12-05T09:02:18.428Z,2520.00
2022-12-05T09:03:18.342Z,2520.00
2022-12-05T09:04:18.340Z,2548.00
2022-12-05T09:05:27.656Z,2608.00
2022-12-05T09:06:19.344Z,2716.00
2022-12-05T09:07:18.299Z,2864.00
2022-12-05T09:08:18.378Z,2992.00
2022-12-05T09:09:18.330Z,3044.00
2022-12-05T09:10:18.294Z,3044.00
2022-12-05T09:11:18.291Z,2988.00
2022-12-05T09:12:18.307Z,2936.00
2022-12-05T09:13:18.309Z,2908.00
2022-12-05T09:14:18.283Z,2896.00
2022-12-05T09:15:18.216Z,2908.00
2022-12-05T09:16:18.331Z,2940.00
2022-12-05T09:17:18.218Z,2988.00
2022-12-05T09:18:18.222Z,3032.00
2022-12-05T09:19:18.187Z,3056.00
2022-12-05T09:20:18.158Z,3020.00
2022-12-05T09:21:18.142Z,2908.00
2022-12-05T09:22:18.158Z,2760.00
2022-12-05T09:23:18.126Z,2648.00
2022-12-05T09:24:18.141Z,2600.00
2022-12-05T09:25:18.091Z,2588.00
2022-12-05T09:26:18.135Z,2548.00
2022-12-05T09:27:18.081Z,2492.00
2022-12-05T09:28:18.068Z,2464.00
2022-12-05T09:29:18.307Z,2492.00
2022-12-05T09:30:18.065Z,2524.00
2022-12-05T09:31:18.165Z,2536.00
2022-12-05T09:32:18.099Z,2544.00
2022-12-05T09:33:18.007Z,2588.00
2022-12-05T09:34:18.344Z,2708.00
2022-12-05T09:35:17.988Z,2900.00
2022-12-05T09:36:17.978Z,3108.00
2022-12-05T09:37:38.238Z,3308.00
2022-12-05T09:38:18.984Z,3420.00
2022-12-05T09:39:17.986Z,3464.00
2022-12-05T09:40:17.936Z,3500.00
2022-12-05T09:41:18.074Z,3632.00
2022-12-05T09:42:17.947Z,3800.00
2022-12-05T09:43:17.907Z,3868.00
2022-12-05T09:44:17.898Z,3868.00
2022-12-05T09:45:17.873Z,3864.00
2022-12-05T09:46:17.933Z,3976.00
2022-12-05T09:47:17.883Z,4216.00
2022-12-05T09:48:17.860Z,4568.00
2022-12-05T09:49:17.836Z,4952.00
2022-12-05T09:50:17.896Z,5260.00
2022-12-05T09:51:17.811Z,5476.00
2022-12-05T09:52:17.823Z,5636.00
2022-12-05T09:53:17.780Z,5764.00
2022-12-05T09:54:17.773Z,5836.00
2022-12-05T09:55:17.761Z,5852.00
2022-12-05T09:56:17.763Z,5832.00
2022-12-05T09:57:17.780Z,5688.00
2022-12-05T09:58:17.752Z,5568.00
2022-12-05T09:59:17.748Z,5496.00
2022-12-05T10:00:20.560Z,5372.00
2022-12-05T10:01:17.770Z,5192.00
2022-12-05T10:02:17.690Z,5148.00
2022-12-05T10:03:17.687Z,5272.00
2022-12-05T10:04:17.834Z,5420.00
2022-12-05T10:05:17.763Z,5588.00
2022-12-05T10:06:17.642Z,5720.00
2022-12-05T10:07:17.642Z,5828.00
2022-12-05T10:08:17.680Z,5908.00
2022-12-05T10:09:17.638Z,6004.00
2022-12-05T10:10:20.182Z,6132.00
2022-12-05T10:11:17.582Z,6216.00
2022-12-05T10:12:17.579Z,6260.00
2022-12-05T10:13:17.564Z,6240.00
2022-12-05T10:14:17.566Z,6228.00
2022-12-05T10:15:17.565Z,6168.00
2022-12-05T10:16:17.561Z,5952.00
2022-12-05T10:17:17.514Z,5772.00
2022-12-05T10:18:17.515Z,5676.00
2022-12-05T10:19:17.494Z,5524.00
2022-12-05T10:20:17.508Z,5360.00
2022-12-05T10:21:17.502Z,5212.00
2022-12-05T10:22:20.738Z,5024.00
2022-12-05T10:23:34.555Z,4768.00
2022-12-05T10:24:18.472Z,4512.00
2022-12-05T10:25:17.442Z,4268.00
2022-12-05T10:26:17.416Z,4032.00
2022-12-05T10:27:17.416Z,3800.00
2022-12-05T10:28:17.392Z,3580.00
2022-12-05T10:29:17.406Z,3384.00
2022-12-05T10:30:17.370Z,3332.00
2022-12-05T10:31:17.417Z,3312.00
2022-12-05T10:32:17.379Z,3348.00
2022-12-05T10:33:17.364Z,3352.00
2022-12-05T10:34:17.340Z,3284.00
2022-12-05T10:35:17.308Z,3160.00
2022-12-05T10:36:17.316Z,3092.00
2022-12-05T10:37:17.304Z,3060.00
2022-12-05T10:38:17.274Z,3016.00
2022-12-05T10:39:17.266Z,3008.00
2022-12-05T10:40:17.295Z,2988.00
2022-12-05T10:41:17.251Z,2992.00
2022-12-05T10:42:17.265Z,3036.00
2022-12-05T10:43:17.226Z,3084.00
2022-12-05T10:44:17.244Z,3092.00
2022-12-05T10:45:17.193Z,3092.00
2022-12-05T10:46:17.666Z,3124.00
2022-12-05T10:47:17.342Z,3192.00
2022-12-05T10:48:17.167Z,3324.00
2022-12-05T10:49:17.164Z,3420.00
2022-12-05T10:50:17.215Z,3468.00
2022-12-05T10:51:17.132Z,3468.00
2022-12-05T10:52:17.159Z,3512.00
2022-12-05T10:53:17.114Z,3580.00
2022-12-05T10:54:17.107Z,3656.00
2022-12-05T10:55:17.101Z,3716.00
2022-12-05T10:56:32.506Z,3748.00
2022-12-05T10:57:18.061Z,3752.00
2022-12-05T10:58:17.888Z,3752.00
2022-12-05T10:59:17.072Z,3824.00
2022-12-05T11:00:17.033Z,3924.00
2022-12-05T11:01:17.023Z,3956.00
2022-12-05T11:02:17.087Z,3892.00
2022-12-05T11:03:17.024Z,3852.00
2022-12-05T11:04:17.014Z,3920.00
2022-12-05T11:05:17.073Z,4152.00
2022-12-05T11:06:16.986Z,4412.00
2022-12-05T11:07:16.954Z,4652.00
2022-12-05T11:08:17.005Z,4796.00
2022-12-05T11:09:16.954Z,4788.00
2022-12-05T11:10:16.935Z,4668.00
2022-12-05T11:11:16.914Z,4528.00
2022-12-05T11:12:16.917Z,4432.00
2022-12-05T11:13:16.910Z,4376.00
2022-12-05T11:14:16.895Z,4356.00
2022-12-05T11:15:16.868Z,4312.00
2022-12-05T11:16:16.914Z,4228.00
2022-12-05T11:17:16.864Z,4048.00
2022-12-05T11:18:16.830Z,3808.00
2022-12-05T11:19:16.818Z,3612.00
2022-12-05T11:20:16.810Z,3536.00
2022-12-05T11:21:16.803Z,3580.00
2022-12-05T11:22:16.810Z,3720.00
2022-12-05T11:23:16.777Z,3804.00
2022-12-05T11:24:16.781Z,3752.00
2022-12-05T11:25:16.755Z,3584.00
2022-12-05T11:26:16.953Z,3428.00
2022-12-05T11:27:16.755Z,3320.00
2022-12-05T11:28:16.721Z,3256.00
2022-12-05T11:29:16.715Z,3360.00
2022-12-05T11:30:16.702Z,3572.00
2022-12-05T11:31:16.783Z,3804.00
2022-12-05T11:32:16.682Z,3904.00
2022-12-05T11:33:16.668Z,3932.00
2022-12-05T11:34:16.656Z,3840.00
2022-12-05T11:35:16.663Z,3732.00
2022-12-05T11:36:16.631Z,3636.00
2022-12-05T11:37:16.620Z,3448.00
2022-12-05T11:38:16.625Z,3312.00
2022-12-05T11:39:16.598Z,3180.00
2022-12-05T11:40:16.607Z,3144.00
2022-12-05T11:41:16.579Z,3116.00
2022-12-05T11:42:16.561Z,3156.00
2022-12-05T11:43:16.575Z,3176.00
2022-12-05T11:44:16.544Z,3136.00
2022-12-05T11:45:16.531Z,3176.00
2022-12-05T11:46:16.596Z,3248.00
2022-12-05T11:47:16.657Z,3252.00
2022-12-05T11:48:16.516Z,3240.00
2022-12-05T11:49:16.486Z,3156.00
2022-12-05T11:50:16.476Z,3064.00
2022-12-05T11:51:16.469Z,3048.00
2022-12-05T11:52:16.462Z,3048.00
2022-12-05T11:53:16.441Z,3016.00
2022-12-05T11:54:22.580Z,3004.00
2022-12-05T11:55:17.679Z,2964.00
2022-12-05T11:56:16.426Z,2888.00
2022-12-05T11:57:16.397Z,2828.00
2022-12-05T11:58:16.410Z,2856.00
2022-12-05T11:59:16.425Z,2912.00
2022-12-05T12:00:16.359Z,2968.00
2022-12-05T12:01:16.357Z,2984.00
2022-12-05T12:02:16.420Z,3008.00
2022-12-05T12:03:16.446Z,3032.00
2022-12-05T12:04:16.316Z,3052.00
2022-12-05T12:05:16.312Z,3028.00
2022-12-05T12:06:16.323Z,2960.00
2022-12-05T12:07:16.311Z,2952.00
2022-12-05T12:08:16.349Z,3040.00
2022-12-05T12:09:16.392Z,3156.00
2022-12-05T12:10:16.289Z,3260.00
2022-12-05T12:11:16.239Z,3328.00
2022-12-05T12:12:16.280Z,3364.00
2022-12-05T12:13:16.259Z,3296.00
2022-12-05T12:14:16.216Z,3204.00
2022-12-05T12:15:16.215Z,3108.00
2022-12-05T12:16:16.221Z,3008.00
2022-12-05T12:17:16.174Z,2932.00
2022-12-05T12:18:16.277Z,2900.00
2022-12-05T12:19:16.149Z,2856.00
2022-12-05T12:20:16.158Z,2792.00
2022-12-05T12:21:16.130Z,2732.00
2022-12-05T12:22:16.113Z,2632.00
2022-12-05T12:23:16.310Z,2516.00
2022-12-05T12:24:16.110Z,2440.00
2022-12-05T12:25:16.090Z,2376.00
2022-12-05T12:26:16.090Z,2356.00
2022-12-05T12:27:16.065Z,2364.00
2022-12-05T12:28:16.142Z,2428.00
2022-12-05T12:29:16.043Z,2552.00
2022-12-05T12:30:16.053Z,2672.00
2022-12-05T12:31:16.085Z,2732.00
2022-12-05T12:32:16.071Z,2852.00
2022-12-05T12:33:15.993Z,3020.00
2022-12-05T12:34:16.004Z,3080.00
2022-12-05T12:35:15.975Z,2920.00
2022-12-05T12:36:15.957Z,2712.00
2022-12-05T12:37:15.950Z,2616.00
2022-12-05T12:38:15.936Z,2604.00
2022-12-05T12:39:15.929Z,2580.00
2022-12-05T12:40:15.932Z,2656.00
2022-12-05T12:41:15.910Z,2688.00
2022-12-05T12:42:15.891Z,2704.00
2022-12-05T12:43:31.188Z,2652.00
2022-12-05T12:44:16.891Z,2432.00
2022-12-05T12:45:15.889Z,2224.00